createdAt,value
2019-03-01T00:02:23.687Z,7.17
2019-03-01T00:05:40.591Z,7.23
2019-03-01T00:08:57.321Z,6.77
2019-03-01T00:12:14.320Z,8.40
2019-03-01T00:15:30.983Z,7.13
2019-03-01T00:18:47.787Z,6.80
2019-03-01T00:22:04.236Z,6.30
2019-03-01T00:25:21.243Z,7.87
2019-03-01T00:28:37.986Z,7.47
2019-03-01T00:31:54.875Z,6.67
2019-03-01T00:35:11.638Z,6.90
2019-03-01T00:38:28.923Z,7.60
2019-03-01T00:41:45.924Z,6.63
2019-03-01T00:45:02.855Z,6.50
2019-03-01T00:48:19.383Z,6.80
2019-03-01T00:51:35.841Z,6.60
2019-03-01T00:54:52.895Z,6.13
2019-03-01T00:58:09.735Z,6.77
2019-03-01T01:01:26.652Z,6.20
2019-03-01T01:04:43.388Z,6.30
2019-03-01T01:08:00.351Z,7.63
2019-03-01T01:11:17.782Z,6.43
2019-03-01T01:14:33.038Z,7.60
2019-03-01T01:17:57.262Z,6.37
2019-03-01T01:21:14.534Z,6.07
2019-03-01T01:24:31.410Z,5.53
2019-03-01T01:27:48.194Z,6.57
2019-03-01T01:31:04.940Z,6.20
2019-03-01T01:34:21.453Z,5.50
2019-03-01T01:37:38.123Z,5.53
2019-03-01T01:40:54.574Z,5.63
2019-03-01T01:44:11.183Z,5.70
2019-03-01T01:47:27.630Z,5.57
2019-03-01T01:50:44.672Z,5.00
2019-03-01T01:54:01.235Z,4.60
2019-03-01T01:57:17.914Z,4.87
2019-03-01T02:00:34.463Z,5.00
2019-03-01T02:03:51.339Z,5.37
2019-03-01T02:07:08.255Z,4.97
2019-03-01T02:10:24.983Z,5.83
2019-03-01T02:13:42.405Z,5.00
2019-03-01T02:16:59.183Z,4.90
2019-03-01T02:20:15.695Z,4.70
2019-03-01T02:23:32.768Z,4.60
2019-03-01T02:26:49.499Z,3.97
2019-03-01T02:30:06.340Z,4.53
2019-03-01T02:33:23.232Z,4.47
2019-03-01T02:36:40.521Z,3.80
2019-03-01T02:39:57.345Z,4.67
2019-03-01T02:43:14.148Z,4.63
2019-03-01T02:46:31.192Z,4.17
2019-03-01T02:49:48.105Z,4.63
2019-03-01T02:53:04.915Z,3.20
2019-03-01T02:56:22.204Z,3.30
2019-03-01T02:59:38.892Z,3.80
2019-03-01T03:02:55.382Z,3.27
2019-03-01T03:06:18.778Z,3.30
2019-03-01T03:09:35.418Z,3.60
2019-03-01T03:12:52.767Z,3.57
2019-03-01T03:16:09.337Z,2.67
2019-03-01T03:19:26.159Z,3.63
2019-03-01T03:22:41.558Z,3.00
2019-03-01T03:25:58.199Z,2.57
2019-03-01T03:29:15.107Z,3.20
2019-03-01T03:32:31.784Z,3.40
2019-03-01T03:35:48.762Z,3.00
2019-03-01T03:39:05.398Z,3.20
2019-03-01T03:42:22.145Z,3.23
2019-03-01T03:45:39.253Z,2.73
2019-03-01T03:48:56.516Z,3.30
2019-03-01T03:52:13.484Z,3.13
2019-03-01T03:55:31.091Z,3.47
2019-03-01T03:58:48.152Z,3.10
2019-03-01T04:02:05.031Z,2.83
2019-03-01T04:05:20.352Z,3.00
2019-03-01T04:08:44.595Z,3.37
2019-03-01T04:12:01.432Z,3.67
2019-03-01T04:15:18.103Z,3.43
2019-03-01T04:18:34.987Z,3.43
2019-03-01T04:21:51.731Z,3.50
2019-03-01T04:25:08.321Z,3.20
2019-03-01T04:28:25.198Z,3.03
2019-03-01T04:31:42.272Z,3.80
2019-03-01T04:34:57.548Z,3.27
2019-03-01T04:38:14.712Z,3.50
2019-03-01T04:41:31.576Z,4.00
2019-03-01T04:44:48.251Z,3.77
2019-03-01T04:48:05.246Z,4.00
2019-03-01T04:51:21.871Z,3.47
2019-03-01T04:54:39.091Z,3.80
2019-03-01T04:57:56.276Z,3.27
2019-03-01T05:01:13.051Z,4.00
2019-03-01T05:04:29.636Z,3.40
2019-03-01T05:07:46.659Z,3.67
2019-03-01T05:11:03.127Z,4.40
2019-03-01T05:14:19.798Z,3.47
2019-03-01T05:17:36.369Z,3.77
2019-03-01T05:20:53.415Z,3.80
2019-03-01T05:24:09.935Z,4.50
2019-03-01T05:27:26.530Z,4.60
2019-03-01T05:30:43.814Z,4.53
2019-03-01T05:34:00.439Z,4.27
2019-03-01T05:37:17.167Z,4.47
2019-03-01T05:40:34.086Z,4.13
2019-03-01T05:43:49.387Z,4.57
2019-03-01T05:47:13.543Z,4.20
2019-03-01T05:50:30.131Z,4.03
2019-03-01T05:53:46.727Z,3.93
2019-03-01T05:57:03.771Z,5.50
2019-03-01T06:00:21.209Z,5.43
2019-03-01T06:03:38.590Z,4.33
2019-03-01T06:06:55.260Z,4.23
2019-03-01T06:10:11.923Z,3.70
2019-03-01T06:13:28.935Z,3.07
2019-03-01T06:16:45.383Z,2.77
2019-03-01T06:20:02.251Z,3.30
2019-03-01T06:23:19.300Z,2.20
2019-03-01T06:26:36.038Z,2.17
2019-03-01T06:29:52.776Z,2.20
2019-03-01T06:33:09.743Z,2.93
2019-03-01T06:36:27.102Z,2.60
2019-03-01T06:39:49.623Z,3.60
2019-03-01T06:43:06.191Z,4.23
2019-03-01T06:46:25.540Z,3.30
2019-03-01T06:50:01.427Z,3.80
2019-03-01T06:53:17.939Z,4.40
2019-03-01T06:56:34.487Z,3.67
2019-03-01T06:59:51.303Z,4.20
2019-03-01T07:03:08.119Z,3.63
2019-03-01T07:06:25.071Z,4.23
2019-03-01T07:09:42.513Z,3.90
2019-03-01T07:12:59.180Z,4.53
2019-03-01T07:16:15.582Z,4.67
2019-03-01T07:19:32.210Z,5.27
2019-03-01T07:22:48.663Z,5.30
2019-03-01T07:26:05.787Z,4.80
2019-03-01T07:29:22.732Z,5.00
2019-03-01T07:32:39.991Z,4.90
2019-03-01T07:35:56.659Z,4.70
2019-03-01T07:39:13.431Z,4.90
2019-03-01T07:42:29.996Z,4.43
2019-03-01T07:45:47.096Z,5.67
2019-03-01T07:49:03.879Z,5.00
2019-03-01T07:52:20.975Z,5.23
2019-03-01T07:55:38.088Z,5.10
2019-03-01T07:58:57.535Z,5.70
2019-03-01T08:02:13.686Z,5.20
2019-03-01T08:05:30.623Z,5.50
2019-03-01T08:08:47.065Z,5.20
2019-03-01T08:12:07.436Z,4.60
2019-03-01T08:15:20.915Z,5.10
2019-03-01T08:18:45.276Z,5.43
2019-03-01T08:22:25.097Z,4.37
2019-03-01T08:25:41.295Z,4.20
2019-03-01T08:28:59.539Z,4.33
2019-03-01T08:32:16.924Z,4.03
2019-03-01T08:35:33.594Z,3.70
2019-03-01T08:38:50.484Z,3.63
2019-03-01T08:42:08.339Z,4.20
2019-03-01T08:45:25.211Z,3.83
2019-03-01T08:48:41.826Z,4.37
2019-03-01T08:52:01.503Z,4.03
2019-03-01T08:55:16.886Z,4.10
2019-03-01T08:58:33.803Z,3.63
2019-03-01T09:01:50.631Z,3.90
2019-03-01T09:05:08.928Z,4.07
2019-03-01T09:08:26.536Z,4.40
2019-03-01T09:11:44.703Z,3.80
2019-03-01T09:15:04.489Z,4.40
2019-03-01T09:18:20.707Z,4.80
2019-03-01T09:21:39.472Z,4.30
2019-03-01T09:24:56.007Z,4.30
2019-03-01T09:28:13.227Z,4.33
2019-03-01T09:31:30.035Z,4.00
2019-03-01T09:34:48.406Z,4.57
2019-03-01T09:38:07.715Z,5.00
2019-03-01T09:41:24.451Z,3.90
2019-03-01T09:44:41.211Z,3.83
2019-03-01T09:47:57.667Z,4.00
2019-03-01T09:51:15.875Z,6.07
2019-03-01T09:54:33.535Z,3.60
2019-03-01T09:57:50.353Z,4.80
2019-03-01T10:01:07.056Z,5.90
2019-03-01T10:04:23.769Z,4.17
2019-03-01T10:07:41.863Z,3.60
2019-03-01T10:10:58.867Z,4.57
2019-03-01T10:14:15.407Z,4.23
2019-03-01T10:17:32.058Z,3.70
2019-03-01T10:20:48.919Z,3.47
2019-03-01T10:24:05.694Z,4.20
2019-03-01T10:27:22.611Z,4.07
2019-03-01T10:30:40.267Z,3.63
2019-03-01T10:33:57.035Z,3.67
2019-03-01T10:37:13.819Z,4.00
2019-03-01T10:40:30.454Z,4.57
2019-03-01T10:43:45.704Z,4.97
2019-03-01T10:47:09.931Z,4.50
2019-03-01T10:50:26.640Z,4.90
2019-03-01T10:53:43.318Z,4.57
2019-03-01T10:57:00.028Z,4.60
2019-03-01T11:00:16.695Z,5.90
2019-03-01T11:03:33.685Z,6.67
2019-03-01T11:06:50.280Z,5.80
2019-03-01T11:10:07.326Z,6.10
2019-03-01T11:13:23.947Z,5.60
2019-03-01T11:16:40.682Z,6.00
2019-03-01T11:19:57.367Z,5.60
2019-03-01T11:23:14.215Z,6.90
2019-03-01T11:26:30.790Z,7.37
2019-03-01T11:29:47.875Z,6.50
2019-03-01T11:33:04.798Z,6.37
2019-03-01T11:36:21.647Z,6.40
2019-03-01T11:39:38.151Z,4.70
2019-03-01T11:42:55.115Z,4.20
2019-03-01T11:46:11.779Z,4.73
2019-03-01T11:49:28.864Z,3.60
2019-03-01T11:52:45.459Z,4.80
2019-03-01T11:56:02.389Z,4.13
2019-03-01T11:59:19.015Z,3.27
2019-03-01T12:02:36.047Z,3.40
2019-03-01T12:05:52.751Z,3.90
2019-03-01T12:09:09.834Z,4.50
2019-03-01T12:12:26.539Z,4.53
2019-03-01T12:15:43.456Z,4.50
2019-03-01T12:19:00.186Z,3.90
2019-03-01T12:22:17.559Z,4.97
2019-03-01T12:25:34.407Z,4.20
2019-03-01T12:28:51.071Z,5.00
2019-03-01T12:32:07.822Z,4.13
2019-03-01T12:35:24.604Z,4.80
2019-03-01T12:38:41.020Z,5.00
2019-03-01T12:41:57.874Z,4.60
2019-03-01T12:45:14.323Z,4.50
2019-03-01T12:48:30.846Z,4.60
2019-03-01T12:51:47.920Z,4.80
2019-03-01T12:55:04.735Z,4.07
2019-03-01T12:58:22.147Z,4.13
2019-03-01T13:01:37.768Z,4.93
2019-03-01T13:04:55.436Z,4.37
2019-03-01T13:08:15.809Z,4.43
2019-03-01T13:11:31.890Z,4.37
2019-03-01T13:14:49.543Z,4.33
2019-03-01T13:18:10.235Z,4.70
2019-03-01T13:21:25.872Z,4.67
2019-03-01T13:24:42.970Z,4.57
2019-03-01T13:28:00.332Z,5.00
2019-03-01T13:31:17.219Z,4.20
2019-03-01T13:34:33.966Z,4.50
2019-03-01T13:37:51.991Z,5.10
2019-03-01T13:41:08.747Z,4.83
2019-03-01T13:44:25.351Z,5.40
2019-03-01T13:47:43.943Z,4.83
2019-03-01T13:51:00.953Z,5.17
2019-03-01T13:54:16.356Z,5.03
2019-03-01T13:57:40.652Z,4.60
2019-03-01T14:00:57.351Z,5.20
2019-03-01T14:04:15.295Z,5.10
2019-03-01T14:07:31.738Z,4.90
2019-03-01T14:10:48.439Z,5.73
2019-03-01T14:14:05.219Z,5.77
2019-03-01T14:17:24.598Z,5.10
2019-03-01T14:20:40.622Z,5.57
2019-03-01T14:23:56.060Z,5.80
2019-03-01T14:27:12.690Z,6.37
2019-03-01T14:30:33.212Z,6.13
2019-03-01T14:33:48.033Z,6.83
2019-03-01T14:37:04.548Z,7.10
2019-03-01T14:40:22.699Z,7.90
2019-03-01T14:43:40.284Z,5.57
2019-03-01T14:46:57.696Z,7.73
2019-03-01T14:50:14.439Z,7.13
2019-03-01T14:53:34.361Z,7.97
2019-03-01T14:56:49.893Z,7.97
2019-03-01T15:00:09.837Z,6.70
2019-03-01T15:03:27.531Z,6.60
2019-03-01T15:06:44.546Z,6.60
2019-03-01T15:10:01.693Z,5.70
2019-03-01T15:13:18.700Z,5.87
2019-03-01T15:16:35.579Z,5.93
2019-03-01T15:19:52.492Z,6.77
2019-03-01T15:23:09.243Z,7.90
2019-03-01T15:26:26.595Z,6.93
2019-03-01T15:29:44.463Z,8.13
2019-03-01T15:33:02.484Z,7.90
2019-03-01T15:36:19.298Z,9.27
2019-03-01T15:39:36.144Z,6.90
2019-03-01T15:42:54.675Z,7.97
2019-03-01T15:46:11.538Z,7.77
2019-03-01T15:49:28.275Z,7.27
2019-03-01T15:52:52.431Z,7.30
2019-03-01T15:56:09.643Z,7.13
2019-03-01T15:59:27.230Z,8.23
2019-03-01T16:02:43.995Z,8.37
2019-03-01T16:06:01.789Z,8.10
2019-03-01T16:09:21.844Z,8.33
2019-03-01T16:12:38.417Z,9.10
2019-03-01T16:15:55.881Z,8.40
2019-03-01T16:19:00.844Z,8.33
2019-03-01T16:22:05.854Z,8.50
2019-03-01T16:25:12.299Z,9.10
2019-03-01T16:28:17.404Z,9.53
2019-03-01T16:31:22.447Z,9.33
2019-03-01T16:34:27.653Z,9.47
2019-03-01T16:37:32.679Z,9.37
2019-03-01T16:40:37.899Z,9.70
2019-03-01T16:43:42.847Z,9.30
2019-03-01T16:46:48.847Z,9.40
2019-03-01T16:49:53.998Z,10.23
2019-03-01T16:53:04.226Z,10.97
2019-03-01T16:56:06.000Z,11.40
2019-03-01T16:59:11.403Z,10.60
2019-03-01T17:02:16.363Z,11.40
2019-03-01T17:05:21.596Z,11.23
2019-03-01T17:08:26.914Z,10.40
2019-03-01T17:11:31.866Z,9.93
2019-03-01T17:14:38.738Z,9.70
2019-03-01T17:17:44.698Z,9.67
2019-03-01T17:20:49.837Z,8.30
2019-03-01T17:23:55.389Z,9.17
2019-03-01T17:27:02.032Z,9.10
2019-03-01T17:30:11.130Z,10.80
2019-03-01T17:33:16.574Z,9.63
2019-03-01T17:36:21.628Z,10.90
2019-03-01T17:39:26.687Z,10.10
2019-03-01T17:42:31.652Z,9.87
2019-03-01T17:45:36.628Z,11.10
2019-03-01T17:48:41.610Z,9.40
2019-03-01T17:51:46.579Z,9.23
2019-03-01T17:54:52.014Z,9.80
2019-03-01T17:57:57.049Z,11.93
2019-03-01T18:01:02.943Z,10.33
2019-03-01T18:04:08.946Z,9.70
2019-03-01T18:07:13.907Z,10.33
2019-03-01T18:10:18.961Z,10.43
2019-03-01T18:13:23.994Z,12.20
2019-03-01T18:16:30.588Z,11.47
2019-03-01T18:19:36.055Z,11.43
2019-03-01T18:22:41.267Z,12.30
2019-03-01T18:25:46.314Z,11.17
2019-03-01T18:28:51.275Z,12.53
2019-03-01T18:31:56.430Z,11.07
2019-03-01T18:35:02.248Z,11.70
2019-03-01T18:38:07.563Z,11.20
2019-03-01T18:41:12.630Z,12.17
2019-03-01T18:44:17.699Z,14.10
2019-03-01T18:47:23.076Z,14.67
2019-03-01T18:50:31.190Z,14.40
2019-03-01T18:53:35.980Z,15.33
2019-03-01T18:56:41.104Z,15.20
2019-03-01T18:59:48.207Z,17.47
2019-03-01T19:02:53.337Z,16.67
2019-03-01T19:05:58.610Z,18.70
2019-03-01T19:09:04.591Z,16.70
2019-03-01T19:12:12.549Z,18.80
2019-03-01T19:15:16.986Z,19.67
2019-03-01T19:18:22.399Z,21.60
2019-03-01T19:21:27.690Z,22.13
2019-03-01T19:24:32.635Z,20.13
2019-03-01T19:27:37.741Z,20.23
2019-03-01T19:30:45.938Z,24.13
2019-03-01T19:33:50.161Z,24.27
2019-03-01T19:36:55.580Z,24.17
2019-03-01T19:40:00.692Z,25.13
2019-03-01T19:43:06.965Z,24.13
2019-03-01T19:46:15.634Z,22.37
2019-03-01T19:49:19.897Z,25.07
2019-03-01T19:52:26.547Z,25.17
2019-03-01T19:55:31.730Z,27.03
2019-03-01T19:58:36.900Z,29.80
2019-03-01T20:01:41.934Z,31.90
2019-03-01T20:04:47.068Z,31.83
2019-03-01T20:07:54.646Z,33.30
2019-03-01T20:10:58.954Z,35.50
2019-03-01T20:14:04.024Z,35.07
2019-03-01T20:17:09.152Z,35.40
2019-03-01T20:20:15.386Z,36.70
2019-03-01T20:23:20.505Z,34.57
2019-03-01T20:26:26.677Z,34.20
2019-03-01T20:29:32.295Z,36.57
2019-03-01T20:32:37.424Z,35.67
2019-03-01T20:35:42.720Z,34.93
2019-03-01T20:38:47.880Z,39.00
2019-03-01T20:41:53.006Z,40.00
2019-03-01T20:44:57.986Z,40.33
2019-03-01T20:48:03.048Z,40.80
2019-03-01T20:51:08.139Z,46.20
2019-03-01T20:54:13.203Z,42.40
2019-03-01T20:57:18.251Z,48.00
2019-03-01T21:00:26.224Z,45.07
2019-03-01T21:03:30.694Z,45.60
2019-03-01T21:06:37.353Z,45.27
2019-03-01T21:09:49.842Z,44.67
2019-03-01T21:12:55.255Z,43.27
2019-03-01T21:16:00.624Z,41.90
2019-03-01T21:19:08.876Z,44.93
2019-03-01T21:22:13.343Z,45.30
2019-03-01T21:25:19.654Z,44.07
2019-03-01T21:28:25.205Z,42.17
2019-03-01T21:31:31.766Z,45.60
2019-03-01T21:34:38.383Z,40.67
2019-03-01T21:37:44.063Z,39.87
2019-03-01T21:40:49.191Z,41.60
2019-03-01T21:43:54.283Z,40.47
2019-03-01T21:46:59.643Z,41.30
2019-03-01T21:50:07.745Z,40.63
2019-03-01T21:53:12.606Z,42.27
2019-03-01T21:56:18.299Z,42.57
2019-03-01T21:59:23.775Z,42.00
2019-03-01T22:02:29.447Z,45.30
2019-03-01T22:05:34.855Z,45.43
2019-03-01T22:08:39.959Z,46.30
2019-03-01T22:11:45.735Z,46.97
2019-03-01T22:14:51.876Z,44.03
2019-03-01T22:17:57.001Z,45.77
2019-03-01T22:21:02.127Z,47.60
2019-03-01T22:24:07.442Z,46.50
2019-03-01T22:27:12.404Z,48.20
2019-03-01T22:30:23.866Z,49.33
2019-03-01T22:33:28.857Z,49.33
2019-03-01T22:36:33.830Z,47.93
2019-03-01T22:39:38.874Z,45.17
2019-03-01T22:42:45.868Z,45.97
2019-03-01T22:45:50.839Z,44.57
2019-03-01T22:48:56.693Z,46.43
2019-03-01T22:52:02.573Z,47.17
2019-03-01T22:55:10.247Z,46.27
2019-03-01T22:58:17.561Z,44.90
2019-03-01T23:01:40.936Z,46.67
2019-03-01T23:04:46.015Z,43.67
2019-03-01T23:07:51.184Z,42.40
2019-03-01T23:10:56.986Z,45.60
2019-03-01T23:14:02.923Z,44.20
2019-03-01T23:17:11.011Z,45.30
2019-03-01T23:20:16.131Z,48.00
2019-03-01T23:23:23.822Z,51.50
2019-03-01T23:26:28.260Z,48.37
2019-03-01T23:29:33.222Z,43.63
2019-03-01T23:32:38.290Z,47.30
2019-03-01T23:35:43.407Z,48.43
2019-03-01T23:38:50.131Z,49.73
2019-03-01T23:41:55.150Z,47.73
2019-03-01T23:45:00.154Z,47.40
2019-03-01T23:48:05.399Z,45.63
2019-03-01T23:51:11.465Z,46.27
2019-03-01T23:54:16.574Z,46.40
2019-03-01T23:57:21.699Z,50.47
